createdAt,value
2023-05-02T00:01:49.800Z,14.17
2023-05-02T00:04:17.480Z,14.10
2023-05-02T00:06:46.745Z,13.94
2023-05-02T00:09:15.684Z,14.15
2023-05-02T00:11:43.193Z,13.93
2023-05-02T00:14:12.586Z,14.15
2023-05-02T00:16:40.108Z,14.05
2023-05-02T00:19:08.103Z,13.98
2023-05-02T00:21:35.443Z,13.94
2023-05-02T00:24:02.836Z,13.94
2023-05-02T00:30:02.247Z,14.07
2023-05-02T00:36:00.457Z,13.91
2023-05-02T00:38:27.911Z,13.87
2023-05-02T00:40:55.178Z,13.94
2023-05-02T00:43:22.469Z,13.89
2023-05-02T00:45:50.753Z,13.74
2023-05-02T00:48:20.641Z,13.75
2023-05-02T00:50:47.794Z,13.77
2023-05-02T00:53:15.426Z,13.75
2023-05-02T00:55:43.058Z,13.58
2023-05-02T00:58:15.163Z,13.60
2023-05-02T01:01:00.509Z,13.49
2023-05-02T01:03:53.026Z,13.47
2023-05-02T01:06:35.924Z,13.53
2023-05-02T01:09:18.949Z,13.63
2023-05-02T01:12:29.185Z,13.56
2023-05-02T01:14:57.819Z,13.56
2023-05-02T01:17:29.320Z,13.51
2023-05-02T01:20:03.345Z,13.46
2023-05-02T01:22:31.607Z,13.43
2023-05-02T01:25:31.131Z,13.49
2023-05-02T01:28:13.962Z,13.34
2023-05-02T01:34:12.158Z,13.40
2023-05-02T01:36:45.142Z,13.30
2023-05-02T01:39:17.117Z,13.32
2023-05-02T01:41:45.277Z,13.22
2023-05-02T01:44:13.615Z,13.18
2023-05-02T01:46:42.909Z,13.22
2023-05-02T01:49:10.961Z,13.21
2023-05-02T01:51:44.599Z,13.24
2023-05-02T01:54:14.329Z,13.43
2023-05-02T01:56:43.670Z,13.23
2023-05-02T01:59:14.514Z,13.10
2023-05-02T02:01:43.832Z,13.00
2023-05-02T02:04:13.642Z,12.99
2023-05-02T02:06:43.749Z,13.18
2023-05-02T02:12:39.051Z,13.27
2023-05-02T02:15:17.579Z,13.13
2023-05-02T02:18:02.712Z,13.22
2023-05-02T02:20:32.008Z,13.17
2023-05-02T02:23:01.009Z,13.18
2023-05-02T02:25:28.681Z,13.13
2023-05-02T02:27:57.153Z,13.06
2023-05-02T02:30:24.442Z,12.90
2023-05-02T02:32:51.800Z,12.99
2023-05-02T02:35:19.873Z,12.90
2023-05-02T02:37:48.547Z,12.75
2023-05-02T02:40:21.657Z,12.70
2023-05-02T02:43:00.503Z,12.63
2023-05-02T02:45:35.358Z,12.42
2023-05-02T02:48:28.069Z,12.48
2023-05-02T02:51:01.966Z,12.71
2023-05-02T02:54:05.950Z,12.70
2023-05-02T02:56:40.559Z,12.65
2023-05-02T02:59:13.965Z,12.64
2023-05-02T03:01:44.489Z,12.32
2023-05-02T03:04:11.910Z,12.42
2023-05-02T03:06:39.692Z,12.41
2023-05-02T03:09:07.353Z,12.38
2023-05-02T03:11:34.879Z,12.47
2023-05-02T03:14:02.045Z,12.51
2023-05-02T03:16:37.556Z,12.63
2023-05-02T03:19:06.936Z,12.63
2023-05-02T03:21:35.491Z,12.59
2023-05-02T03:24:05.231Z,12.48
2023-05-02T03:26:32.929Z,12.55
2023-05-02T03:29:00.888Z,12.67
2023-05-02T03:35:00.205Z,12.52
2023-05-02T03:37:29.627Z,12.47
2023-05-02T03:39:57.965Z,12.58
2023-05-02T03:42:25.632Z,12.51
2023-05-02T03:44:53.936Z,12.50
2023-05-02T03:47:21.315Z,12.63
2023-05-02T03:49:49.572Z,12.62
2023-05-02T03:52:17.622Z,12.52
2023-05-02T03:54:46.795Z,12.77
2023-05-02T03:57:14.491Z,12.69
2023-05-02T03:59:45.734Z,12.82
2023-05-02T04:02:14.049Z,12.89
2023-05-02T04:04:43.523Z,13.00
2023-05-02T04:07:18.197Z,12.90
2023-05-02T04:09:46.233Z,13.00
2023-05-02T04:12:15.722Z,13.08
2023-05-02T04:14:43.498Z,13.08
2023-05-02T04:17:11.303Z,13.27
2023-05-02T04:19:39.022Z,13.27
2023-05-02T04:22:06.451Z,13.46
2023-05-02T04:24:35.186Z,13.54
2023-05-02T04:27:03.020Z,13.66
2023-05-02T04:29:30.507Z,13.92
2023-05-02T04:31:58.635Z,13.92
2023-05-02T04:34:27.718Z,14.10
2023-05-02T04:36:55.656Z,14.10
2023-05-02T04:39:24.232Z,14.33
2023-05-02T04:41:53.450Z,14.77
2023-05-02T04:44:22.335Z,14.73
2023-05-02T04:46:50.381Z,14.76
2023-05-02T04:49:19.690Z,15.16
2023-05-02T04:51:47.198Z,15.09
2023-05-02T04:54:15.824Z,15.25
2023-05-02T04:56:43.889Z,15.56
2023-05-02T04:59:14.584Z,15.55
2023-05-02T05:01:42.345Z,15.54
2023-05-02T05:04:10.167Z,15.52
2023-05-02T05:06:37.866Z,15.72
2023-05-02T05:09:06.192Z,16.10
2023-05-02T05:11:34.262Z,15.91
2023-05-02T05:14:04.148Z,16.02
2023-05-02T05:16:32.632Z,16.36
2023-05-02T05:18:59.975Z,16.33
2023-05-02T05:21:27.510Z,15.90
2023-05-02T05:23:56.570Z,15.90
2023-05-02T05:29:55.030Z,16.10
2023-05-02T05:32:22.710Z,16.55
2023-05-02T05:34:53.985Z,16.58
2023-05-02T05:37:22.722Z,17.68
2023-05-02T05:39:50.306Z,18.55
2023-05-02T05:42:18.529Z,20.23
2023-05-02T05:44:46.588Z,19.84
2023-05-02T05:47:20.373Z,21.02
2023-05-02T05:49:48.882Z,21.46
2023-05-02T05:52:16.608Z,21.98
2023-05-02T05:54:43.964Z,22.25
2023-05-02T05:57:11.455Z,21.19
2023-05-02T05:59:39.380Z,22.58
2023-05-02T06:02:07.734Z,24.02
2023-05-02T06:04:35.451Z,24.20
2023-05-02T06:07:03.616Z,22.91
2023-05-02T06:09:30.952Z,24.47
2023-05-02T06:11:58.752Z,22.80
2023-05-02T06:14:26.881Z,22.53
2023-05-02T06:16:54.296Z,22.99
2023-05-02T06:19:22.067Z,23.77
2023-05-02T06:21:49.368Z,22.20
2023-05-02T06:24:17.124Z,21.78
2023-05-02T06:30:17.909Z,23.23
2023-05-02T06:32:45.572Z,25.42
2023-05-02T06:35:12.919Z,25.93
2023-05-02T06:37:40.225Z,27.42
2023-05-02T06:43:39.730Z,24.06
2023-05-02T06:46:08.002Z,26.58
2023-05-02T06:48:38.749Z,25.88
2023-05-02T06:51:27.443Z,24.44
2023-05-02T06:57:30.617Z,26.58
2023-05-02T06:59:58.746Z,28.03
2023-05-02T07:02:26.391Z,28.70
2023-05-02T07:04:53.896Z,29.28
2023-05-02T07:07:22.234Z,29.39
2023-05-02T07:09:49.725Z,28.99
2023-05-02T07:12:30.707Z,28.97
2023-05-02T07:14:58.587Z,29.28
2023-05-02T07:17:26.047Z,28.51
2023-05-02T07:19:56.612Z,26.39
2023-05-02T07:25:53.730Z,24.19
2023-05-02T07:28:21.303Z,23.45
2023-05-02T07:30:48.717Z,22.77
2023-05-02T07:33:16.311Z,24.77
2023-05-02T07:39:14.998Z,24.84
2023-05-02T07:41:42.706Z,24.61
2023-05-02T07:44:09.986Z,25.11
2023-05-02T07:46:37.314Z,24.68
2023-05-02T07:49:22.018Z,25.75
2023-05-02T07:55:30.696Z,26.65
2023-05-02T07:57:58.493Z,28.19
2023-05-02T08:00:34.375Z,27.23
2023-05-02T08:03:15.041Z,26.72
2023-05-02T08:05:42.495Z,25.76
2023-05-02T08:11:40.788Z,27.05
2023-05-02T08:14:48.711Z,25.66
2023-05-02T08:21:01.695Z,26.21
2023-05-02T08:26:58.628Z,24.79
2023-05-02T08:33:08.669Z,24.82
2023-05-02T08:35:36.596Z,25.26
2023-05-02T08:41:35.202Z,26.62
2023-05-02T08:44:04.154Z,26.25
2023-05-02T08:46:33.261Z,25.49
2023-05-02T08:49:01.932Z,25.60
2023-05-02T08:51:32.617Z,25.87
2023-05-02T08:54:02.923Z,25.98
2023-05-02T08:56:30.686Z,25.67
2023-05-02T09:02:50.363Z,25.52
2023-05-02T09:05:21.004Z,26.77
2023-05-02T09:07:49.557Z,26.39
2023-05-02T09:10:16.832Z,27.36
2023-05-02T09:12:44.549Z,25.66
2023-05-02T09:15:19.195Z,26.21
2023-05-02T09:17:49.336Z,25.41
2023-05-02T09:23:47.878Z,25.73
2023-05-02T09:26:35.214Z,25.04
2023-05-02T09:29:04.864Z,24.59
2023-05-02T09:34:10.717Z,25.26
2023-05-02T09:36:50.516Z,25.74
2023-05-02T09:39:22.508Z,26.00
2023-05-02T09:41:51.527Z,25.73
2023-05-02T09:44:24.077Z,25.34
2023-05-02T09:46:56.058Z,25.22
2023-05-02T09:49:42.795Z,25.50
2023-05-02T09:52:15.376Z,25.58
2023-05-02T09:54:43.340Z,26.29
2023-05-02T09:57:11.511Z,25.98
2023-05-02T09:59:43.354Z,25.73
2023-05-02T10:02:12.188Z,24.77
2023-05-02T10:04:40.675Z,24.41
2023-05-02T10:07:10.683Z,23.96
2023-05-02T10:09:44.382Z,23.78
2023-05-02T10:12:17.205Z,24.15
2023-05-02T10:14:50.891Z,23.69
2023-05-02T10:17:35.105Z,23.99
2023-05-02T10:20:07.100Z,23.90
2023-05-02T10:22:36.911Z,24.30
2023-05-02T10:25:04.689Z,24.60
2023-05-02T10:27:33.132Z,24.71
2023-05-02T10:30:01.411Z,24.44
2023-05-02T10:32:29.677Z,24.32
2023-05-02T10:34:57.371Z,23.95
2023-05-02T10:37:28.449Z,24.21
2023-05-02T10:39:55.845Z,24.34
2023-05-02T10:42:23.975Z,24.90
2023-05-02T10:44:51.827Z,24.24
2023-05-02T10:47:22.753Z,24.07
2023-05-02T10:50:01.183Z,24.32
2023-05-02T10:52:34.493Z,23.69
2023-05-02T10:55:22.148Z,23.75
2023-05-02T10:58:09.493Z,24.04
2023-05-02T11:00:37.001Z,24.27
2023-05-02T11:03:04.836Z,23.97
2023-05-02T11:05:37.133Z,24.27
2023-05-02T11:08:19.376Z,24.11
2023-05-02T11:10:48.026Z,24.76
2023-05-02T11:13:15.983Z,24.67
2023-05-02T11:15:43.236Z,24.17
2023-05-02T11:18:14.740Z,24.32
2023-05-02T11:20:43.999Z,24.16
2023-05-02T11:23:24.752Z,24.56
2023-05-02T11:25:56.900Z,24.50
2023-05-02T11:28:45.348Z,24.81
2023-05-02T11:31:29.387Z,24.75
2023-05-02T11:33:57.286Z,24.93
2023-05-02T11:36:34.966Z,24.80
2023-05-02T11:39:05.941Z,25.02
2023-05-02T11:41:43.094Z,24.72
2023-05-02T11:44:10.480Z,24.83
2023-05-02T11:46:39.307Z,25.06
2023-05-02T11:49:09.799Z,25.18
2023-05-02T11:51:38.502Z,25.43
2023-05-02T11:54:08.079Z,25.84
2023-05-02T11:56:35.412Z,25.55
2023-05-02T11:59:04.164Z,25.85
2023-05-02T12:01:31.589Z,25.85
2023-05-02T12:04:07.378Z,25.90
2023-05-02T12:06:35.449Z,25.37
2023-05-02T12:09:10.724Z,25.23
2023-05-02T12:11:38.804Z,25.08
2023-05-02T12:14:09.452Z,25.36
2023-05-02T12:16:38.520Z,25.25
2023-05-02T12:19:06.058Z,25.13
2023-05-02T12:21:36.938Z,25.10
2023-05-02T12:24:04.587Z,25.02
2023-05-02T12:26:33.751Z,24.68
2023-05-02T12:29:02.845Z,25.07
2023-05-02T12:31:32.255Z,25.02
2023-05-02T12:34:00.583Z,25.11
2023-05-02T12:36:28.891Z,25.44
2023-05-02T12:38:59.919Z,24.95
2023-05-02T12:41:34.692Z,24.81
2023-05-02T12:44:01.985Z,24.88
2023-05-02T12:46:30.097Z,24.89
2023-05-02T12:49:12.479Z,24.79
2023-05-02T12:51:52.866Z,25.06
2023-05-02T12:54:20.713Z,25.25
2023-05-02T12:56:49.075Z,25.40
2023-05-02T12:59:29.996Z,25.24
2023-05-02T13:01:57.918Z,25.44
2023-05-02T13:04:45.470Z,25.41
2023-05-02T13:07:13.172Z,25.53
2023-05-02T13:09:40.518Z,25.12
2023-05-02T13:12:08.115Z,25.17
2023-05-02T13:14:35.745Z,25.10
2023-05-02T13:17:04.134Z,25.35
2023-05-02T13:19:31.775Z,25.40
2023-05-02T13:21:59.447Z,25.24
2023-05-02T13:24:26.810Z,25.44
2023-05-02T13:26:53.998Z,25.41
2023-05-02T13:29:22.206Z,25.01
2023-05-02T13:31:49.757Z,25.39
2023-05-02T13:34:17.087Z,24.80
2023-05-02T13:36:46.545Z,24.78
2023-05-02T13:39:16.688Z,24.87
2023-05-02T13:41:44.296Z,24.60
2023-05-02T13:44:11.836Z,24.50
2023-05-02T13:46:39.392Z,24.65
2023-05-02T13:49:06.854Z,24.42
2023-05-02T13:51:34.706Z,24.59
2023-05-02T13:54:05.097Z,24.60
2023-05-02T13:56:34.453Z,24.25
2023-05-02T13:59:02.566Z,24.30
2023-05-02T14:01:30.817Z,24.49
2023-05-02T14:03:59.521Z,24.40
2023-05-02T14:06:27.540Z,24.12
2023-05-02T14:08:55.301Z,24.59
2023-05-02T14:11:25.416Z,24.76
2023-05-02T14:13:57.570Z,24.23
2023-05-02T14:16:25.344Z,24.16
2023-05-02T14:18:54.829Z,24.05
2023-05-02T14:21:21.992Z,24.24
2023-05-02T14:23:49.934Z,24.38
2023-05-02T14:26:17.509Z,24.29
2023-05-02T14:28:44.671Z,24.25
2023-05-02T14:31:12.411Z,24.17
2023-05-02T14:33:39.909Z,23.82
2023-05-02T14:36:07.335Z,23.98
2023-05-02T14:38:34.952Z,24.06
2023-05-02T14:41:03.197Z,23.98
2023-05-02T14:43:30.721Z,23.65
2023-05-02T14:45:59.043Z,23.54
2023-05-02T14:48:26.430Z,23.59
2023-05-02T14:51:01.228Z,23.57
2023-05-02T14:57:11.937Z,23.44
2023-05-02T14:59:40.402Z,23.44
2023-05-02T15:02:08.037Z,23.59
2023-05-02T15:08:10.466Z,23.59
2023-05-02T15:10:39.277Z,23.47
2023-05-02T15:13:07.694Z,23.48
2023-05-02T15:15:35.449Z,23.48
2023-05-02T15:18:07.369Z,23.35
2023-05-02T15:20:34.964Z,23.14
2023-05-02T15:26:33.835Z,22.69
2023-05-02T15:29:02.467Z,22.61
2023-05-02T15:31:29.940Z,22.42
2023-05-02T15:33:57.270Z,22.27
2023-05-02T15:36:29.141Z,22.37
2023-05-02T15:38:57.145Z,22.35
2023-05-02T15:41:29.357Z,22.37
2023-05-02T15:43:58.638Z,22.37
2023-05-02T15:46:26.366Z,22.31
2023-05-02T15:48:56.754Z,22.47
2023-05-02T15:51:23.986Z,22.49
2023-05-02T15:53:52.738Z,22.50
2023-05-02T15:56:21.638Z,22.57
2023-05-02T16:02:19.591Z,22.46
2023-05-02T16:08:17.320Z,22.40
2023-05-02T16:10:45.648Z,22.39
2023-05-02T16:13:13.198Z,22.25
2023-05-02T16:15:40.970Z,22.23
2023-05-02T16:18:09.185Z,22.14
2023-05-02T16:20:37.036Z,22.16
2023-05-02T16:26:34.824Z,22.17
2023-05-02T16:32:32.933Z,22.02
2023-05-02T16:35:05.226Z,21.99
2023-05-02T16:37:33.859Z,21.88
2023-05-02T16:40:02.043Z,21.80
2023-05-02T16:42:29.811Z,21.75
2023-05-02T16:44:57.652Z,21.63
2023-05-02T16:47:28.407Z,21.51
2023-05-02T16:49:56.655Z,21.33
2023-05-02T16:52:24.620Z,21.15
2023-05-02T16:54:52.741Z,21.08
2023-05-02T16:57:21.315Z,21.01
2023-05-02T16:59:51.458Z,21.00
2023-05-02T17:02:21.131Z,20.97
2023-05-02T17:04:49.974Z,20.84
2023-05-02T17:07:17.668Z,20.82
2023-05-02T17:09:45.299Z,20.47
2023-05-02T17:12:12.946Z,20.20
2023-05-02T17:14:42.550Z,20.11
2023-05-02T17:17:10.715Z,20.20
2023-05-02T17:19:39.576Z,20.22
2023-05-02T17:22:07.364Z,20.12
2023-05-02T17:24:36.574Z,20.07
2023-05-02T17:27:04.041Z,19.93
2023-05-02T17:29:31.832Z,19.75
2023-05-02T17:32:02.733Z,19.65
2023-05-02T17:34:30.639Z,19.78
2023-05-02T17:36:57.917Z,19.63
2023-05-02T17:39:25.875Z,19.46
2023-05-02T17:41:53.460Z,19.05
2023-05-02T17:44:21.939Z,18.82
2023-05-02T17:46:49.557Z,18.65
2023-05-02T17:49:17.158Z,18.57
2023-05-02T17:51:44.954Z,18.54
2023-05-02T17:54:13.889Z,18.43
2023-05-02T17:56:41.995Z,18.40
2023-05-02T17:59:10.781Z,18.33
2023-05-02T18:01:43.175Z,18.33
2023-05-02T18:04:16.640Z,18.35
2023-05-02T18:06:48.206Z,18.38
2023-05-02T18:09:16.454Z,18.38
2023-05-02T18:11:46.988Z,18.27
2023-05-02T18:14:17.819Z,18.20
2023-05-02T18:16:48.805Z,18.05
2023-05-02T18:19:16.453Z,18.00
2023-05-02T18:21:46.414Z,17.90
2023-05-02T18:24:14.210Z,17.78
2023-05-02T18:26:42.472Z,17.62
2023-05-02T18:29:10.503Z,17.45
2023-05-02T18:31:40.591Z,17.30
2023-05-02T18:34:09.383Z,17.27
2023-05-02T18:36:37.314Z,17.23
2023-05-02T18:39:05.109Z,17.30
2023-05-02T18:41:32.394Z,17.18
2023-05-02T18:44:01.800Z,17.02
2023-05-02T18:46:30.099Z,16.87
2023-05-02T18:49:00.390Z,16.76
2023-05-02T18:51:29.242Z,16.58
2023-05-02T18:57:27.334Z,16.55
2023-05-02T19:03:29.149Z,16.12
2023-05-02T19:06:01.398Z,16.01
2023-05-02T19:08:29.372Z,16.02
2023-05-02T19:10:57.714Z,15.98
2023-05-02T19:13:27.587Z,15.94
2023-05-02T19:15:56.492Z,16.00
2023-05-02T19:18:27.455Z,15.97
2023-05-02T19:20:57.191Z,15.91
2023-05-02T19:23:27.115Z,15.88
2023-05-02T19:25:58.041Z,15.92
2023-05-02T19:28:32.601Z,15.97
2023-05-02T19:31:03.833Z,15.98
2023-05-02T19:33:32.415Z,15.99
2023-05-02T19:36:00.120Z,15.92
2023-05-02T19:38:27.725Z,15.95
2023-05-02T19:40:56.433Z,15.93
2023-05-02T19:43:24.188Z,15.86
2023-05-02T19:45:54.717Z,15.81
2023-05-02T19:48:23.355Z,15.75
2023-05-02T19:50:58.386Z,15.73
2023-05-02T19:53:27.370Z,15.70
2023-05-02T19:55:55.174Z,15.71
2023-05-02T19:58:30.226Z,15.62
2023-05-02T20:00:58.536Z,15.53
2023-05-02T20:03:26.864Z,15.48
2023-05-02T20:05:58.735Z,15.52
2023-05-02T20:08:28.293Z,15.45
2023-05-02T20:10:56.393Z,15.48
2023-05-02T20:13:24.266Z,15.39
2023-05-02T20:15:52.942Z,15.30
2023-05-02T20:18:21.062Z,15.35
2023-05-02T20:20:49.636Z,15.29
2023-05-02T20:23:17.144Z,15.32
2023-05-02T20:25:46.186Z,15.21
2023-05-02T20:28:13.592Z,15.04
2023-05-02T20:30:42.079Z,14.98
2023-05-02T20:33:15.662Z,15.07
2023-05-02T20:35:45.280Z,15.02
2023-05-02T20:38:12.502Z,14.96
2023-05-02T20:40:40.880Z,15.01
2023-05-02T20:43:08.926Z,14.95
2023-05-02T20:45:36.153Z,14.95
2023-05-02T20:48:03.626Z,14.94
2023-05-02T20:50:31.273Z,14.95
2023-05-02T20:52:59.402Z,14.90
2023-05-02T20:55:26.788Z,14.75
2023-05-02T20:57:54.296Z,14.76
2023-05-02T21:00:24.437Z,14.78
2023-05-02T21:02:51.682Z,14.69
2023-05-02T21:05:19.090Z,14.77
2023-05-02T21:07:46.585Z,14.76
2023-05-02T21:10:13.857Z,14.75
2023-05-02T21:12:41.470Z,14.68
2023-05-02T21:15:08.732Z,14.55
2023-05-02T21:17:40.791Z,14.66
2023-05-02T21:20:10.287Z,14.56
2023-05-02T21:22:37.378Z,14.57
2023-05-02T21:25:04.933Z,14.65
2023-05-02T21:27:32.344Z,14.63
2023-05-02T21:29:59.966Z,14.62
2023-05-02T21:32:27.439Z,14.68
2023-05-02T21:34:54.944Z,14.66
2023-05-02T21:37:22.953Z,14.59
2023-05-02T21:39:50.274Z,14.55
2023-05-02T21:42:17.863Z,14.49
2023-05-02T21:44:44.935Z,14.56
2023-05-02T21:47:12.414Z,14.52
2023-05-02T21:49:40.125Z,14.47
2023-05-02T21:52:07.356Z,14.47
2023-05-02T21:54:34.443Z,14.36
2023-05-02T21:57:04.645Z,14.36
2023-05-02T21:59:31.760Z,14.36
2023-05-02T22:01:58.999Z,14.35
2023-05-02T22:04:26.814Z,14.23
2023-05-02T22:06:54.576Z,14.20
2023-05-02T22:09:22.545Z,14.30
2023-05-02T22:11:50.064Z,14.31
2023-05-02T22:14:17.309Z,14.38
2023-05-02T22:16:44.565Z,14.42
2023-05-02T22:19:11.952Z,14.40
2023-05-02T22:21:39.219Z,14.37
2023-05-02T22:24:06.551Z,14.36
2023-05-02T22:26:33.925Z,14.32
2023-05-02T22:29:01.074Z,14.33
2023-05-02T22:31:28.211Z,14.33
2023-05-02T22:33:55.663Z,14.40
2023-05-02T22:36:22.787Z,14.39
2023-05-02T22:38:49.947Z,14.42
2023-05-02T22:41:17.387Z,14.41
2023-05-02T22:43:44.509Z,14.46
2023-05-02T22:46:11.661Z,14.52
2023-05-02T22:48:39.086Z,14.79
2023-05-02T22:51:06.506Z,14.71
2023-05-02T22:53:33.681Z,14.50
2023-05-02T22:56:01.087Z,14.49
2023-05-02T22:58:28.456Z,14.66
2023-05-02T23:04:14.052Z,14.73
2023-05-02T23:10:11.628Z,14.90
2023-05-02T23:12:39.226Z,14.85
2023-05-02T23:15:07.332Z,14.73
2023-05-02T23:17:41.250Z,14.67
2023-05-02T23:20:12.326Z,14.45
2023-05-02T23:22:46.286Z,14.38
2023-05-02T23:25:14.832Z,14.31
2023-05-02T23:27:42.010Z,14.15
2023-05-02T23:30:09.807Z,14.08
2023-05-02T23:32:37.671Z,14.21
2023-05-02T23:35:05.948Z,14.24
2023-05-02T23:37:33.316Z,14.30
2023-05-02T23:40:01.273Z,14.32
2023-05-02T23:42:33.923Z,14.33
2023-05-02T23:45:01.722Z,14.40
2023-05-02T23:47:28.927Z,14.35
2023-05-02T23:49:56.694Z,14.40
2023-05-02T23:52:24.301Z,14.38
2023-05-02T23:54:52.707Z,14.30
2023-05-02T23:57:19.971Z,14.23
2023-05-02T23:59:47.556Z,14.31
